createdAt,value
2019-04-04T00:00:58.955Z,50.78
2019-04-04T00:03:30.405Z,50.52
2019-04-04T00:06:01.985Z,50.40
2019-04-04T00:08:33.733Z,50.28
2019-04-04T00:11:06.080Z,50.28
2019-04-04T00:13:38.228Z,50.24
2019-04-04T00:16:09.509Z,50.45
2019-04-04T00:18:41.226Z,50.34
2019-04-04T00:21:12.776Z,50.00
2019-04-04T00:23:44.483Z,50.12
2019-04-04T00:26:15.882Z,50.18
2019-04-04T00:28:47.584Z,50.39
2019-04-04T00:31:19.768Z,50.42
2019-04-04T00:33:51.440Z,50.30
2019-04-04T00:36:22.845Z,50.18
2019-04-04T00:38:54.864Z,50.06
2019-04-04T00:41:26.537Z,49.71
2019-04-04T00:43:58.246Z,49.81
2019-04-04T00:46:30.884Z,50.07
2019-04-04T00:49:04.922Z,49.54
2019-04-04T00:51:38.699Z,49.09
2019-04-04T00:54:09.752Z,48.84
2019-04-04T00:56:41.133Z,48.94
2019-04-04T00:59:12.840Z,49.22
2019-04-04T01:01:44.597Z,49.40
2019-04-04T01:04:16.338Z,49.65
2019-04-04T01:06:47.909Z,49.71
2019-04-04T01:09:19.763Z,49.64
2019-04-04T01:11:51.867Z,49.43
2019-04-04T01:14:23.490Z,49.61
2019-04-04T01:16:54.949Z,49.77
2019-04-04T01:19:26.521Z,50.00
2019-04-04T01:21:58.200Z,50.03
2019-04-04T01:24:29.949Z,50.11
2019-04-04T01:27:01.396Z,50.36
2019-04-04T01:29:33.247Z,50.49
2019-04-04T01:32:05.138Z,50.43
2019-04-04T01:34:36.920Z,49.64
2019-04-04T01:37:08.595Z,51.01
2019-04-04T01:39:40.036Z,51.00
2019-04-04T01:42:11.893Z,50.79
2019-04-04T01:44:44.381Z,51.03
2019-04-04T01:47:17.057Z,51.14
2019-04-04T01:49:49.972Z,50.50
2019-04-04T01:52:22.934Z,50.61
2019-04-04T01:54:54.883Z,50.38
2019-04-04T01:57:26.778Z,50.42
2019-04-04T01:59:58.132Z,50.38
2019-04-04T02:02:30.522Z,50.28
2019-04-04T02:05:02.414Z,50.09
2019-04-04T02:07:34.072Z,50.30
2019-04-04T02:10:06.568Z,50.49
2019-04-04T02:12:39.260Z,51.00
2019-04-04T02:15:13.777Z,51.06
2019-04-04T02:17:44.336Z,51.48
2019-04-04T02:20:16.779Z,51.46
2019-04-04T02:22:48.466Z,51.75
2019-04-04T02:25:19.865Z,51.78
2019-04-04T02:27:51.392Z,51.83
2019-04-04T02:30:22.879Z,52.09
2019-04-04T02:32:59.428Z,52.56
2019-04-04T02:35:28.681Z,52.59
2019-04-04T02:38:02.863Z,52.54
2019-04-04T02:40:34.728Z,52.72
2019-04-04T02:43:06.436Z,52.91
2019-04-04T02:45:39.107Z,53.04
2019-04-04T02:48:10.803Z,52.65
2019-04-04T02:50:42.392Z,52.95
2019-04-04T02:53:19.359Z,52.96
2019-04-04T02:55:47.117Z,53.33
2019-04-04T02:58:18.679Z,53.82
2019-04-04T03:00:50.231Z,53.57
2019-04-04T03:03:21.894Z,53.38
2019-04-04T03:05:53.514Z,52.86
2019-04-04T03:08:25.184Z,52.17
2019-04-04T03:10:56.774Z,51.93
2019-04-04T03:13:31.168Z,51.78
2019-04-04T03:16:01.571Z,51.79
2019-04-04T03:18:34.829Z,51.67
2019-04-04T03:21:06.454Z,51.78
2019-04-04T03:23:37.969Z,51.80
2019-04-04T03:26:09.834Z,51.56
2019-04-04T03:28:41.591Z,51.75
2019-04-04T03:31:13.246Z,51.48
2019-04-04T03:33:44.622Z,51.11
2019-04-04T03:36:16.217Z,51.11
2019-04-04T03:38:48.884Z,50.07
2019-04-04T03:41:20.739Z,48.99
2019-04-04T03:43:52.251Z,45.94
2019-04-04T03:46:24.197Z,43.37
2019-04-04T03:48:55.552Z,40.58
2019-04-04T03:51:27.301Z,38.44
2019-04-04T03:54:00.219Z,36.20
2019-04-04T03:56:38.781Z,34.93
2019-04-04T03:59:05.249Z,33.73
2019-04-04T04:01:36.969Z,32.99
2019-04-04T04:04:08.450Z,31.96
2019-04-04T04:06:41.932Z,31.96
2019-04-04T04:09:14.522Z,33.16
2019-04-04T04:11:46.486Z,34.19
2019-04-04T04:14:21.648Z,36.18
2019-04-04T04:16:51.236Z,35.89
2019-04-04T04:19:24.525Z,36.33
2019-04-04T04:21:55.970Z,35.75
2019-04-04T04:24:29.816Z,33.54
2019-04-04T04:27:01.100Z,31.70
2019-04-04T04:29:34.015Z,30.01
2019-04-04T04:32:05.469Z,28.38
2019-04-04T04:34:37.148Z,26.11
2019-04-04T04:37:08.468Z,24.86
2019-04-04T04:39:41.440Z,25.15
2019-04-04T04:42:12.383Z,25.47
2019-04-04T04:44:43.842Z,23.93
2019-04-04T04:47:15.367Z,23.52
2019-04-04T04:49:47.146Z,24.38
2019-04-04T04:52:18.528Z,24.38
2019-04-04T04:54:50.086Z,23.50
2019-04-04T04:57:29.503Z,23.31
2019-04-04T04:59:55.582Z,22.01
2019-04-04T05:02:26.958Z,21.62
2019-04-04T05:04:59.424Z,20.30
2019-04-04T05:07:31.314Z,19.77
2019-04-04T05:10:03.268Z,20.25
2019-04-04T05:12:34.810Z,19.91
2019-04-04T05:15:07.342Z,18.84
2019-04-04T05:17:40.029Z,18.57
2019-04-04T05:20:12.287Z,19.02
2019-04-04T05:22:43.711Z,19.55
2019-04-04T05:25:15.848Z,19.29
2019-04-04T05:27:47.762Z,18.51
2019-04-04T05:30:20.461Z,18.61
2019-04-04T05:32:56.268Z,18.77
2019-04-04T05:35:25.792Z,18.31
2019-04-04T05:37:57.440Z,17.98
2019-04-04T05:40:30.683Z,17.78
2019-04-04T05:43:04.189Z,16.65
2019-04-04T05:45:35.452Z,16.80
2019-04-04T05:48:07.108Z,17.16
2019-04-04T05:50:38.453Z,16.74
2019-04-04T05:53:10.212Z,16.45
2019-04-04T05:55:42.486Z,16.25
2019-04-04T05:58:14.346Z,16.35
2019-04-04T06:00:46.934Z,15.99
2019-04-04T06:03:18.605Z,16.21
2019-04-04T06:05:50.358Z,15.86
2019-04-04T06:08:22.112Z,16.31
2019-04-04T06:10:54.043Z,15.94
2019-04-04T06:13:27.014Z,16.41
2019-04-04T06:15:58.747Z,16.28
2019-04-04T06:18:30.239Z,15.57
2019-04-04T06:21:01.836Z,14.96
2019-04-04T06:23:33.653Z,15.77
2019-04-04T06:26:07.416Z,14.80
2019-04-04T06:28:38.813Z,14.56
2019-04-04T06:31:10.607Z,15.43
2019-04-04T06:33:42.360Z,14.46
2019-04-04T06:36:17.612Z,14.62
2019-04-04T06:38:49.772Z,14.25
2019-04-04T06:41:21.383Z,14.42
2019-04-04T06:43:54.323Z,13.76
2019-04-04T06:46:26.048Z,13.78
2019-04-04T06:48:57.957Z,13.54
2019-04-04T06:51:29.553Z,13.61
2019-04-04T06:54:01.441Z,13.44
2019-04-04T06:56:33.019Z,13.14
2019-04-04T06:59:04.927Z,12.84
2019-04-04T07:01:36.602Z,12.76
2019-04-04T07:04:08.236Z,12.73
2019-04-04T07:06:41.761Z,12.29
2019-04-04T07:09:13.591Z,12.05
2019-04-04T07:11:44.973Z,11.90
2019-04-04T07:14:17.493Z,13.03
2019-04-04T07:16:49.460Z,12.60
2019-04-04T07:19:21.136Z,12.29
2019-04-04T07:21:52.795Z,12.71
2019-04-04T07:24:24.303Z,12.84
2019-04-04T07:26:55.863Z,13.07
2019-04-04T07:29:27.782Z,12.73
2019-04-04T07:31:59.542Z,12.76
2019-04-04T07:34:30.979Z,12.63
2019-04-04T07:37:03.130Z,13.50
2019-04-04T07:39:34.812Z,13.75
2019-04-04T07:42:06.602Z,13.46
2019-04-04T07:44:38.512Z,13.20
2019-04-04T07:47:10.453Z,12.99
2019-04-04T07:49:41.814Z,13.38
2019-04-04T07:52:13.934Z,14.01
2019-04-04T07:54:45.529Z,13.43
2019-04-04T07:57:19.712Z,13.65
2019-04-04T07:59:50.339Z,16.49
2019-04-04T08:02:22.261Z,19.64
2019-04-04T08:04:53.900Z,21.47
2019-04-04T08:07:25.425Z,24.14
2019-04-04T08:09:56.927Z,25.28
2019-04-04T08:12:28.787Z,26.22
2019-04-04T08:15:00.539Z,26.22
2019-04-04T08:17:32.300Z,25.90
2019-04-04T08:20:04.674Z,26.66
2019-04-04T08:22:39.460Z,26.71
2019-04-04T08:25:09.357Z,25.02
2019-04-04T08:27:40.934Z,25.61
2019-04-04T08:30:12.819Z,25.89
2019-04-04T08:32:44.237Z,25.70
2019-04-04T08:35:15.509Z,26.02
2019-04-04T08:37:47.277Z,25.99
2019-04-04T08:40:18.599Z,25.98
2019-04-04T08:42:50.163Z,27.08
2019-04-04T08:45:21.825Z,26.31
2019-04-04T08:47:53.678Z,26.94
2019-04-04T08:50:25.358Z,27.07
2019-04-04T08:52:56.856Z,26.64
2019-04-04T08:55:28.225Z,26.63
2019-04-04T08:58:00.182Z,26.53
2019-04-04T09:00:31.603Z,26.38
2019-04-04T09:03:03.344Z,26.67
2019-04-04T09:05:34.763Z,26.33
2019-04-04T09:08:06.414Z,27.06
2019-04-04T09:10:37.774Z,26.32
2019-04-04T09:13:09.912Z,26.10
2019-04-04T09:15:41.463Z,26.50
2019-04-04T09:18:13.341Z,26.54
2019-04-04T09:20:44.677Z,26.81
2019-04-04T09:23:16.530Z,26.30
2019-04-04T09:25:47.991Z,26.47
2019-04-04T09:28:19.750Z,26.06
2019-04-04T09:30:51.615Z,26.42
2019-04-04T09:33:23.175Z,25.63
2019-04-04T09:35:54.919Z,25.71
2019-04-04T09:38:29.055Z,25.64
2019-04-04T09:40:59.679Z,26.51
2019-04-04T09:43:31.278Z,25.92
2019-04-04T09:46:02.748Z,26.15
2019-04-04T09:48:34.427Z,26.99
2019-04-04T09:51:06.203Z,27.26
2019-04-04T09:53:52.386Z,27.18
2019-04-04T09:56:13.270Z,26.72
2019-04-04T09:58:44.797Z,26.85
2019-04-04T10:01:16.386Z,26.17
2019-04-04T10:03:47.835Z,26.11
2019-04-04T10:06:19.636Z,26.45
2019-04-04T10:08:51.041Z,26.31
2019-04-04T10:11:22.699Z,26.31
2019-04-04T10:13:54.153Z,26.70
2019-04-04T10:16:25.876Z,26.85
2019-04-04T10:18:57.455Z,27.23
2019-04-04T10:21:29.159Z,27.23
2019-04-04T10:24:01.522Z,27.27
2019-04-04T10:26:33.061Z,27.62
2019-04-04T10:29:04.646Z,28.32
2019-04-04T10:31:36.488Z,28.22
2019-04-04T10:34:08.183Z,28.29
2019-04-04T10:36:39.964Z,28.10
2019-04-04T10:39:12.986Z,28.24
2019-04-04T10:41:44.619Z,28.24
2019-04-04T10:44:16.157Z,28.50
2019-04-04T10:46:47.836Z,28.06
2019-04-04T10:49:19.301Z,27.69
2019-04-04T10:51:51.126Z,28.15
2019-04-04T10:54:22.791Z,28.17
2019-04-04T10:56:54.278Z,28.11
2019-04-04T10:59:25.995Z,27.53
2019-04-04T11:02:00.735Z,27.58
2019-04-04T11:04:31.158Z,27.69
2019-04-04T11:07:02.907Z,27.73
2019-04-04T11:09:41.733Z,27.65
2019-04-04T11:12:07.508Z,27.54
2019-04-04T11:14:39.002Z,27.47
2019-04-04T11:17:10.665Z,27.52
2019-04-04T11:19:43.519Z,27.94
2019-04-04T11:22:15.262Z,27.87
2019-04-04T11:24:46.788Z,27.75
2019-04-04T11:27:18.644Z,27.93
2019-04-04T11:29:49.862Z,27.49
2019-04-04T11:32:21.899Z,27.61
2019-04-04T11:34:53.922Z,27.56
2019-04-04T11:37:25.423Z,27.26
2019-04-04T11:39:57.711Z,27.49
2019-04-04T11:42:29.076Z,27.31
2019-04-04T11:45:00.859Z,27.39
2019-04-04T11:47:33.483Z,27.72
2019-04-04T11:50:07.618Z,27.53
2019-04-04T11:52:39.032Z,27.49
2019-04-04T11:55:10.683Z,27.20
2019-04-04T11:57:42.257Z,27.16
2019-04-04T12:00:15.365Z,27.25
2019-04-04T12:02:46.915Z,27.29
2019-04-04T12:05:18.800Z,26.95
2019-04-04T12:07:50.355Z,26.79
2019-04-04T12:10:21.758Z,26.41
2019-04-04T12:12:53.318Z,26.70
2019-04-04T12:15:24.983Z,26.94
2019-04-04T12:17:56.750Z,26.97
2019-04-04T12:20:28.068Z,27.13
2019-04-04T12:22:59.707Z,26.96
2019-04-04T12:25:31.234Z,27.00
2019-04-04T12:28:03.168Z,26.74
2019-04-04T12:30:34.696Z,26.85
2019-04-04T12:33:06.487Z,26.50
2019-04-04T12:35:38.326Z,26.30
2019-04-04T12:38:10.130Z,26.18
2019-04-04T12:40:41.945Z,25.92
2019-04-04T12:43:13.791Z,26.35
2019-04-04T12:45:45.454Z,26.47
2019-04-04T12:48:16.892Z,25.95
2019-04-04T12:50:48.625Z,26.12
2019-04-04T12:53:20.614Z,25.90
2019-04-04T12:55:54.158Z,26.10
2019-04-04T12:58:25.187Z,25.93
2019-04-04T13:00:56.609Z,26.15
2019-04-04T13:03:28.706Z,26.27
2019-04-04T13:06:00.440Z,26.11
2019-04-04T13:08:32.129Z,25.85
2019-04-04T13:11:03.543Z,25.90
2019-04-04T13:13:37.993Z,26.08
2019-04-04T13:16:09.335Z,26.63
2019-04-04T13:18:40.893Z,26.62
2019-04-04T13:21:12.383Z,26.20
2019-04-04T13:23:44.376Z,25.87
2019-04-04T13:26:15.886Z,26.01
2019-04-04T13:28:47.503Z,25.96
2019-04-04T13:31:18.734Z,25.90
2019-04-04T13:33:51.222Z,25.92
2019-04-04T13:36:22.546Z,25.67
2019-04-04T13:38:55.166Z,25.80
2019-04-04T13:41:27.496Z,25.62
2019-04-04T13:43:59.046Z,25.17
2019-04-04T13:46:30.719Z,25.24
2019-04-04T13:49:02.362Z,25.50
2019-04-04T13:51:33.736Z,25.31
2019-04-04T13:54:05.616Z,25.43
2019-04-04T13:56:37.049Z,25.46
2019-04-04T13:59:08.592Z,25.35
2019-04-04T14:01:42.789Z,25.50
2019-04-04T14:04:13.309Z,25.42
2019-04-04T14:06:45.105Z,25.42
2019-04-04T14:09:16.889Z,24.93
2019-04-04T14:11:48.383Z,25.17
2019-04-04T14:14:20.034Z,25.56
2019-04-04T14:16:51.704Z,25.06
2019-04-04T14:19:22.891Z,25.43
2019-04-04T14:21:54.496Z,25.25
2019-04-04T14:24:26.144Z,25.19
2019-04-04T14:26:57.553Z,25.55
2019-04-04T14:29:28.980Z,25.64
2019-04-04T14:32:00.800Z,25.73
2019-04-04T14:34:32.479Z,25.67
2019-04-04T14:37:04.440Z,25.55
2019-04-04T14:39:35.839Z,25.67
2019-04-04T14:42:07.453Z,25.54
2019-04-04T14:44:39.292Z,25.57
2019-04-04T14:47:10.946Z,25.77
2019-04-04T14:49:45.079Z,25.77
2019-04-04T14:52:19.528Z,25.86
2019-04-04T14:54:49.356Z,25.75
2019-04-04T14:57:20.946Z,25.78
2019-04-04T14:59:52.601Z,25.75
2019-04-04T15:02:24.166Z,25.86
2019-04-04T15:04:56.061Z,25.84
2019-04-04T15:07:27.463Z,25.58
2019-04-04T15:09:59.124Z,25.66
2019-04-04T15:12:30.787Z,27.44
2019-04-04T15:15:02.612Z,25.86
2019-04-04T15:17:34.081Z,26.14
2019-04-04T15:20:08.876Z,26.08
2019-04-04T15:22:40.597Z,26.10
2019-04-04T15:25:12.233Z,26.52
2019-04-04T15:27:43.839Z,26.45
2019-04-04T15:30:15.465Z,26.79
2019-04-04T15:32:47.290Z,26.86
2019-04-04T15:35:18.840Z,26.83
2019-04-04T15:37:50.261Z,26.93
2019-04-04T15:40:21.743Z,27.27
2019-04-04T15:42:53.087Z,27.39
2019-04-04T15:45:24.785Z,27.55
2019-04-04T15:47:56.096Z,27.89
2019-04-04T15:50:27.949Z,28.18
2019-04-04T15:52:59.159Z,28.35
2019-04-04T15:55:30.758Z,28.61
2019-04-04T15:58:01.993Z,28.51
2019-04-04T16:00:33.765Z,28.54
2019-04-04T16:03:05.260Z,28.72
2019-04-04T16:05:38.808Z,28.90
2019-04-04T16:08:10.476Z,29.27
2019-04-04T16:10:42.015Z,29.38
2019-04-04T16:13:13.468Z,29.54
2019-04-04T16:15:45.234Z,29.80
2019-04-04T16:18:16.736Z,29.93
2019-04-04T16:20:48.235Z,30.15
2019-04-04T16:23:19.518Z,30.37
2019-04-04T16:25:51.176Z,30.74
2019-04-04T16:28:22.625Z,30.81
2019-04-04T16:30:54.072Z,31.06
2019-04-04T16:33:26.564Z,31.26
2019-04-04T16:35:58.245Z,30.97
2019-04-04T16:38:30.017Z,31.00
2019-04-04T16:41:01.474Z,30.88
2019-04-04T16:43:33.334Z,30.95
2019-04-04T16:46:04.874Z,31.20
2019-04-04T16:48:36.439Z,31.45
2019-04-04T16:51:07.643Z,31.72
2019-04-04T16:53:39.225Z,31.83
2019-04-04T16:56:10.886Z,31.91
2019-04-04T16:58:42.572Z,32.19
2019-04-04T17:01:14.158Z,32.29
2019-04-04T17:03:45.879Z,32.30
2019-04-04T17:06:17.107Z,32.18
2019-04-04T17:08:48.895Z,31.98
2019-04-04T17:11:20.247Z,31.81
2019-04-04T17:13:51.965Z,31.54
2019-04-04T17:16:23.856Z,32.27
2019-04-04T17:18:56.632Z,31.95
2019-04-04T17:21:27.956Z,32.58
2019-04-04T17:23:59.730Z,32.18
2019-04-04T17:26:31.126Z,32.16
2019-04-04T17:29:02.864Z,32.19
2019-04-04T17:31:34.480Z,32.60
2019-04-04T17:34:05.768Z,32.52
2019-04-04T17:36:38.029Z,32.60
2019-04-04T17:39:10.000Z,32.61
2019-04-04T17:41:41.788Z,32.85
2019-04-04T17:44:14.686Z,32.77
2019-04-04T17:46:48.311Z,33.28
2019-04-04T17:49:20.228Z,33.41
2019-04-04T17:51:51.915Z,33.68
2019-04-04T17:54:23.597Z,33.65
2019-04-04T17:56:55.267Z,33.59
2019-04-04T17:59:26.877Z,33.63
2019-04-04T18:01:58.541Z,33.56
2019-04-04T18:04:29.881Z,33.74
2019-04-04T18:07:01.504Z,34.20
2019-04-04T18:09:33.172Z,34.31
2019-04-04T18:12:05.030Z,34.63
2019-04-04T18:14:36.708Z,34.97
2019-04-04T18:17:08.570Z,35.39
2019-04-04T18:19:40.144Z,34.88
2019-04-04T18:22:11.778Z,35.29
2019-04-04T18:24:43.438Z,35.31
2019-04-04T18:27:14.958Z,35.48
2019-04-04T18:29:46.805Z,35.28
2019-04-04T18:32:18.394Z,35.46
2019-04-04T18:34:49.725Z,35.08
2019-04-04T18:37:21.928Z,35.02
2019-04-04T18:39:53.359Z,35.22
2019-04-04T18:42:25.376Z,34.79
2019-04-04T18:44:57.263Z,35.08
2019-04-04T18:47:28.920Z,35.33
2019-04-04T18:50:00.726Z,35.56
2019-04-04T18:52:32.579Z,35.94
2019-04-04T18:55:05.470Z,36.15
2019-04-04T18:57:37.164Z,36.42
2019-04-04T19:00:11.825Z,36.59
2019-04-04T19:02:43.561Z,36.49
2019-04-04T19:05:15.323Z,36.22
2019-04-04T19:07:47.130Z,36.23
2019-04-04T19:10:18.560Z,36.16
2019-04-04T19:12:50.017Z,36.54
2019-04-04T19:15:21.689Z,36.56
2019-04-04T19:17:53.428Z,36.91
2019-04-04T19:20:25.198Z,36.78
2019-04-04T19:22:56.805Z,36.69
2019-04-04T19:25:28.269Z,36.88
2019-04-04T19:28:00.041Z,37.09
2019-04-04T19:30:31.645Z,37.30
2019-04-04T19:33:03.181Z,37.65
2019-04-04T19:35:34.946Z,37.69
2019-04-04T19:38:06.920Z,37.63
2019-04-04T19:40:38.801Z,37.88
2019-04-04T19:43:17.926Z,38.43
2019-04-04T19:45:43.869Z,37.61
2019-04-04T19:48:15.542Z,37.17
2019-04-04T19:50:47.017Z,37.07
2019-04-04T19:53:18.549Z,36.83
2019-04-04T19:55:50.056Z,37.10
2019-04-04T19:58:21.600Z,37.50
2019-04-04T20:00:52.994Z,38.07
2019-04-04T20:03:24.639Z,38.68
2019-04-04T20:05:56.420Z,39.27
2019-04-04T20:08:28.563Z,39.84
2019-04-04T20:11:02.316Z,41.52
2019-04-04T20:13:34.524Z,41.95
2019-04-04T20:16:05.943Z,41.78
2019-04-04T20:18:37.512Z,42.54
2019-04-04T20:21:09.404Z,43.00
2019-04-04T20:23:41.089Z,43.88
2019-04-04T20:26:12.694Z,44.50
2019-04-04T20:28:44.681Z,44.49
2019-04-04T20:31:16.353Z,44.56
2019-04-04T20:34:00.660Z,44.79
2019-04-04T20:36:21.587Z,45.08
2019-04-04T20:38:53.248Z,45.29
2019-04-04T20:41:24.939Z,45.64
2019-04-04T20:43:56.554Z,46.03
2019-04-04T20:46:28.642Z,46.24
2019-04-04T20:49:00.070Z,47.04
2019-04-04T20:51:32.132Z,47.14
2019-04-04T20:54:04.092Z,46.87
2019-04-04T20:56:35.917Z,47.00
2019-04-04T20:59:07.569Z,47.11
2019-04-04T21:01:38.839Z,47.04
2019-04-04T21:04:10.620Z,46.80
2019-04-04T21:06:42.177Z,46.68
2019-04-04T21:09:13.658Z,46.77
2019-04-04T21:11:44.990Z,47.14
2019-04-04T21:14:16.887Z,47.27
2019-04-04T21:16:48.278Z,47.38
2019-04-04T21:19:20.032Z,47.53
2019-04-04T21:21:51.601Z,47.41
2019-04-04T21:24:23.651Z,47.49
2019-04-04T21:26:55.037Z,47.61
2019-04-04T21:29:26.682Z,47.24
2019-04-04T21:31:57.980Z,47.26
2019-04-04T21:34:29.683Z,47.09
2019-04-04T21:37:01.016Z,47.35
2019-04-04T21:39:33.309Z,47.59
2019-04-04T21:42:04.353Z,47.75
2019-04-04T21:44:36.487Z,47.73
2019-04-04T21:47:08.137Z,47.81
2019-04-04T21:49:39.754Z,47.84
2019-04-04T21:52:11.454Z,47.51
2019-04-04T21:54:43.513Z,47.59
2019-04-04T21:57:15.175Z,47.45
2019-04-04T21:59:46.628Z,47.39
2019-04-04T22:02:18.287Z,47.50
2019-04-04T22:04:49.721Z,47.62
2019-04-04T22:07:21.396Z,47.75
2019-04-04T22:09:56.079Z,47.83
2019-04-04T22:12:27.692Z,48.04
2019-04-04T22:14:59.422Z,48.21
2019-04-04T22:17:31.286Z,48.49
2019-04-04T22:20:02.883Z,48.64
2019-04-04T22:22:34.824Z,48.96
2019-04-04T22:25:07.232Z,49.15
2019-04-04T22:27:38.829Z,49.46
2019-04-04T22:30:10.078Z,49.65
2019-04-04T22:32:41.854Z,50.05
2019-04-04T22:35:13.294Z,50.34
2019-04-04T22:37:44.944Z,50.75
2019-04-04T22:40:16.383Z,51.02
2019-04-04T22:42:48.142Z,50.79
2019-04-04T22:45:19.609Z,51.27
2019-04-04T22:47:51.360Z,50.94
2019-04-04T22:50:22.711Z,51.17
2019-04-04T22:52:54.825Z,51.17
2019-04-04T22:55:26.814Z,51.15
2019-04-04T22:57:58.387Z,51.26
2019-04-04T23:00:29.708Z,51.40
2019-04-04T23:03:02.493Z,51.42
2019-04-04T23:05:33.859Z,51.42
2019-04-04T23:08:07.473Z,51.48
2019-04-04T23:10:38.714Z,51.62
2019-04-04T23:13:10.262Z,51.69
2019-04-04T23:15:41.811Z,51.57
2019-04-04T23:18:13.501Z,51.89
2019-04-04T23:20:44.834Z,52.00
2019-04-04T23:23:16.679Z,52.02
2019-04-04T23:25:48.227Z,51.99
2019-04-04T23:28:19.986Z,51.92
2019-04-04T23:30:51.642Z,52.04
2019-04-04T23:33:23.099Z,52.04
2019-04-04T23:35:54.782Z,51.99
2019-04-04T23:38:26.507Z,52.26
2019-04-04T23:40:58.051Z,52.57
2019-04-04T23:43:29.614Z,52.90
2019-04-04T23:46:01.002Z,53.25
2019-04-04T23:48:32.502Z,53.52
2019-04-04T23:51:04.494Z,53.74
2019-04-04T23:53:35.989Z,53.84
2019-04-04T23:56:07.892Z,53.98
2019-04-04T23:58:39.137Z,54.08
